Time;durP1;ratioP1;P1;durP2;ratioP2;P2;SDS_P1;SDS_P2;PMS_P1;PMS_P2;Temp;Humidity;BMP_temperature;BMP_pressure;BME280_temperature;BME280_humidity;BME280_pressure;Samples;Min_cycle;Max_cycle;Signal;HPM_P1;HPM_P2
2023/12/04 00:00:10;;;;;;;19.30;10.60;;;;;;;;;;689503;28;1317;-69
2023/12/04 00:00:33;;;;;;;18.23;10.15;;;;;;;;;;690398;28;987;-68
2023/12/04 00:00:54;;;;;;;18.17;9.53;;;;;;;;;;689535;28;1788;-68
2023/12/04 00:01:15;;;;;;;17.27;9.55;;;;;;;;;;686961;28;1425;-68
2023/12/04 00:01:35;;;;;;;18.23;9.88;;;;;;;;;;686848;28;4498;-68
2023/12/04 00:01:55;;;;;;;18.50;9.80;;;;;;;;;;687336;28;1240;-68
2023/12/04 00:02:15;;;;;;;17.53;9.63;;;;;;;;;;684655;28;1261;-68
2023/12/04 00:02:36;;;;;;;16.93;9.47;;;;;;;;;;684132;28;1742;-68
2023/12/04 00:02:56;;;;;;;17.23;10.33;;;;;;;;;;684836;28;893;-68
2023/12/04 00:03:16;;;;;;;16.60;10.07;;;;;;;;;;686931;28;944;-68
2023/12/04 00:03:37;;;;;;;17.03;9.80;;;;;;;;;;686549;28;2018;-69
2023/12/04 00:03:57;;;;;;;16.83;9.93;;;;;;;;;;683501;28;1249;-67
2023/12/04 00:04:17;;;;;;;17.13;9.68;;;;;;;;;;686362;28;1381;-67
2023/12/04 00:04:38;;;;;;;19.03;10.57;;;;;;;;;;685562;28;4719;-68
2023/12/04 00:04:59;;;;;;;18.20;10.60;;;;;;;;;;687737;28;873;-68
2023/12/04 00:05:19;;;;;;;18.67;10.43;;;;;;;;;;684543;28;1729;-68
2023/12/04 00:05:42;;;;;;;18.50;10.67;;;;;;;;;;683957;28;2432;-68
2023/12/04 00:06:02;;;;;;;15.98;9.70;;;;;;;;;;684577;28;970;-68
2023/12/04 00:06:23;;;;;;;17.30;9.80;;;;;;;;;;684407;28;888;-68
2023/12/04 00:06:44;;;;;;;15.68;9.35;;;;;;;;;;683796;28;2432;-67
2023/12/04 00:07:05;;;;;;;16.63;9.35;;;;;;;;;;684589;28;807;-68
2023/12/04 00:07:26;;;;;;;17.15;9.77;;;;;;;;;;686927;28;4605;-68
2023/12/04 00:07:48;;;;;;;18.98;10.90;;;;;;;;;;687184;28;1007;-68
2023/12/04 00:08:09;;;;;;;18.27;10.55;;;;;;;;;;690359;28;829;-68
2023/12/04 00:08:30;;;;;;;17.83;9.88;;;;;;;;;;689751;28;790;-67
2023/12/04 00:08:51;;;;;;;17.48;10.25;;;;;;;;;;685939;28;1770;-67
2023/12/04 00:09:12;;;;;;;17.48;9.95;;;;;;;;;;687471;28;997;-68
2023/12/04 00:09:32;;;;;;;17.40;9.50;;;;;;;;;;686423;28;991;-68
2023/12/04 00:09:53;;;;;;;18.87;9.80;;;;;;;;;;685951;28;1723;-67
2023/12/04 00:10:13;;;;;;;17.65;9.88;;;;;;;;;;684682;28;869;-67
2023/12/04 00:10:34;;;;;;;18.15;9.88;;;;;;;;;;682802;28;4280;-67
2023/12/04 00:10:54;;;;;;;17.07;9.03;;;;;;;;;;681342;28;1845;-68
2023/12/04 00:11:14;;;;;;;15.83;9.53;;;;;;;;;;684741;28;775;-68
2023/12/04 00:11:35;;;;;;;15.10;8.95;;;;;;;;;;683874;28;787;-67
2023/12/04 00:11:55;;;;;;;17.53;9.80;;;;;;;;;;678443;29;2471;-69
2023/12/04 00:12:15;;;;;;;17.43;9.80;;;;;;;;;;682308;29;775;-69
2023/12/04 00:12:35;;;;;;;16.77;9.70;;;;;;;;;;685438;28;1161;-69
2023/12/04 00:12:56;;;;;;;16.60;10.00;;;;;;;;;;687618;28;783;-67
2023/12/04 00:13:16;;;;;;;16.05;9.60;;;;;;;;;;687663;28;909;-67
2023/12/04 00:13:37;;;;;;;15.17;8.37;;;;;;;;;;685857;28;4423;-68
2023/12/04 00:13:57;;;;;;;16.50;9.03;;;;;;;;;;686662;28;1247;-68
2023/12/04 00:14:17;;;;;;;19.37;10.27;;;;;;;;;;687637;28;1064;-69
2023/12/04 00:14:38;;;;;;;17.50;10.03;;;;;;;;;;689334;28;1764;-68
2023/12/04 00:14:58;;;;;;;16.77;9.77;;;;;;;;;;689844;28;1345;-68
2023/12/04 00:15:19;;;;;;;17.23;9.50;;;;;;;;;;690036;28;940;-68
2023/12/04 00:15:39;;;;;;;16.80;9.35;;;;;;;;;;689369;28;1850;-68
2023/12/04 00:15:59;;;;;;;17.13;10.03;;;;;;;;;;689695;28;1297;-67
2023/12/04 00:16:20;;;;;;;15.82;9.52;;;;;;;;;;690465;28;1280;-68
2023/12/04 00:16:40;;;;;;;17.73;9.80;;;;;;;;;;689104;28;4275;-67
2023/12/04 00:17:00;;;;;;;18.67;9.73;;;;;;;;;;690820;28;916;-67
2023/12/04 00:17:20;;;;;;;17.15;9.82;;;;;;;;;;690442;28;968;-68
2023/12/04 00:17:41;;;;;;;15.97;9.70;;;;;;;;;;686613;28;1864;-68
2023/12/04 00:18:01;;;;;;;19.07;9.77;;;;;;;;;;684779;28;1063;-68
2023/12/04 00:18:21;;;;;;;17.00;9.55;;;;;;;;;;687049;28;897;-67
2023/12/04 00:18:41;;;;;;;17.20;9.90;;;;;;;;;;686380;28;2182;-67
2023/12/04 00:19:02;;;;;;;15.77;9.00;;;;;;;;;;687190;28;897;-68
2023/12/04 00:19:22;;;;;;;16.95;9.40;;;;;;;;;;686745;28;1663;-67
2023/12/04 00:19:42;;;;;;;15.53;9.30;;;;;;;;;;685330;28;4263;-67
2023/12/04 00:20:02;;;;;;;15.63;9.30;;;;;;;;;;688880;28;928;-67
2023/12/04 00:20:23;;;;;;;16.63;9.25;;;;;;;;;;687506;28;823;-68
2023/12/04 00:20:43;;;;;;;16.00;9.43;;;;;;;;;;687360;28;1616;-68
2023/12/04 00:21:03;;;;;;;16.23;9.70;;;;;;;;;;687155;28;1375;-69
2023/12/04 00:21:24;;;;;;;14.75;8.63;;;;;;;;;;687600;28;869;-68
2023/12/04 00:21:44;;;;;;;16.23;9.50;;;;;;;;;;686539;28;885;-67
2023/12/04 00:22:05;;;;;;;16.60;9.43;;;;;;;;;;687139;28;1224;-67
2023/12/04 00:22:25;;;;;;;17.70;9.17;;;;;;;;;;689371;28;4387;-67
2023/12/04 00:22:45;;;;;;;18.73;9.80;;;;;;;;;;687291;28;1831;-67
2023/12/04 00:23:05;;;;;;;16.80;9.53;;;;;;;;;;687319;28;888;-68
2023/12/04 00:23:26;;;;;;;18.17;9.43;;;;;;;;;;687583;28;1234;-66
2023/12/04 00:23:46;;;;;;;18.27;9.70;;;;;;;;;;686830;28;1996;-67
2023/12/04 00:24:06;;;;;;;18.33;10.03;;;;;;;;;;689707;28;3829;-67
2023/12/04 00:24:27;;;;;;;16.45;10.20;;;;;;;;;;689714;28;1036;-67
2023/12/04 00:24:47;;;;;;;16.83;10.10;;;;;;;;;;689794;28;1635;-67
2023/12/04 00:25:07;;;;;;;17.40;10.40;;;;;;;;;;690430;28;936;-67
2023/12/04 00:25:28;;;;;;;16.77;10.10;;;;;;;;;;689603;28;4361;-67
2023/12/04 00:25:48;;;;;;;15.20;9.40;;;;;;;;;;689077;28;2409;-67
2023/12/04 00:26:08;;;;;;;16.93;9.67;;;;;;;;;;689884;28;1394;-67
2023/12/04 00:26:28;;;;;;;16.20;9.50;;;;;;;;;;689497;28;869;-67
2023/12/04 00:26:49;;;;;;;16.03;9.47;;;;;;;;;;689377;28;1580;-68
2023/12/04 00:27:10;;;;;;;16.77;9.60;;;;;;;;;;690178;28;1507;-67
2023/12/04 00:27:30;;;;;;;16.95;9.63;;;;;;;;;;690038;28;1787;-67
2023/12/04 00:27:50;;;;;;;15.17;9.63;;;;;;;;;;688174;28;8202;-67
2023/12/04 00:28:11;;;;;;;15.37;10.07;;;;;;;;;;690232;28;793;-67
2023/12/04 00:28:31;;;;;;;16.50;10.13;;;;;;;;;;689142;28;4254;-67
2023/12/04 00:28:51;;;;;;;16.97;9.90;;;;;;;;;;689428;28;1909;-66
2023/12/04 00:29:11;;;;;;;16.27;9.80;;;;;;;;;;690103;28;912;-67
2023/12/04 00:29:32;;;;;;;16.70;9.98;;;;;;;;;;689720;28;1097;-67
2023/12/04 00:29:52;;;;;;;16.63;9.00;;;;;;;;;;689518;28;1057;-68
2023/12/04 00:30:12;;;;;;;19.38;9.60;;;;;;;;;;690237;28;790;-67
2023/12/04 00:30:33;;;;;;;18.60;10.73;;;;;;;;;;689435;28;1299;-67
2023/12/04 00:30:53;;;;;;;16.80;9.90;;;;;;;;;;689004;28;2201;-67
2023/12/04 00:31:14;;;;;;;17.57;9.73;;;;;;;;;;690063;28;1039;-68
2023/12/04 00:31:34;;;;;;;16.87;9.50;;;;;;;;;;686895;28;4434;-67
2023/12/04 00:31:56;;;;;;;16.13;9.57;;;;;;;;;;686897;28;1597;-67
2023/12/04 00:32:17;;;;;;;15.90;9.43;;;;;;;;;;686448;28;968;-67
2023/12/04 00:32:37;;;;;;;15.57;9.18;;;;;;;;;;687902;28;987;-70
2023/12/04 00:32:57;;;;;;;14.47;8.57;;;;;;;;;;687725;28;1245;-67
2023/12/04 00:33:17;;;;;;;17.23;9.33;;;;;;;;;;688986;28;822;-67
2023/12/04 00:33:38;;;;;;;17.08;9.68;;;;;;;;;;687843;28;1763;-67
2023/12/04 00:33:58;;;;;;;16.67;10.20;;;;;;;;;;689771;28;865;-67
2023/12/04 00:34:18;;;;;;;15.80;9.60;;;;;;;;;;689776;28;905;-67
2023/12/04 00:34:38;;;;;;;15.40;9.00;;;;;;;;;;687594;28;4466;-67
2023/12/04 00:34:59;;;;;;;15.90;9.73;;;;;;;;;;690864;28;778;-67
2023/12/04 00:35:19;;;;;;;17.17;10.13;;;;;;;;;;688818;28;1487;-67
2023/12/04 00:35:39;;;;;;;17.27;9.75;;;;;;;;;;689524;28;1531;-67
2023/12/04 00:35:59;;;;;;;16.90;9.87;;;;;;;;;;687232;28;1328;-66
2023/12/04 00:36:20;;;;;;;16.03;9.20;;;;;;;;;;687402;28;1332;-67
2023/12/04 00:36:40;;;;;;;16.15;9.25;;;;;;;;;;686455;28;1990;-67
2023/12/04 00:37:00;;;;;;;15.73;9.40;;;;;;;;;;687266;28;892;-67
2023/12/04 00:37:20;;;;;;;15.57;9.30;;;;;;;;;;690154;28;770;-67
2023/12/04 00:37:41;;;;;;;16.02;9.23;;;;;;;;;;689055;28;4399;-68
2023/12/04 00:38:01;;;;;;;15.63;9.00;;;;;;;;;;690094;28;1352;-66
2023/12/04 00:38:22;;;;;;;14.95;9.20;;;;;;;;;;690373;28;805;-67
2023/12/04 00:38:42;;;;;;;15.73;9.23;;;;;;;;;;689456;28;1535;-66
2023/12/04 00:39:03;;;;;;;17.40;9.77;;;;;;;;;;689710;28;1311;-66
2023/12/04 00:39:24;;;;;;;17.13;9.27;;;;;;;;;;690105;28;908;-68
2023/12/04 00:39:44;;;;;;;16.30;8.50;;;;;;;;;;688947;28;1047;-67
2023/12/04 00:40:05;;;;;;;14.73;8.40;;;;;;;;;;690013;28;928;-68
2023/12/04 00:40:26;;;;;;;15.18;8.52;;;;;;;;;;687997;28;5084;-68
2023/12/04 00:40:46;;;;;;;16.30;9.27;;;;;;;;;;690030;28;1519;-67
2023/12/04 00:41:06;;;;;;;16.50;9.50;;;;;;;;;;689996;28;917;-67
2023/12/04 00:41:26;;;;;;;18.13;10.10;;;;;;;;;;690017;28;1082;-67
2023/12/04 00:41:46;;;;;;;16.87;9.30;;;;;;;;;;689294;28;1328;-69
2023/12/04 00:42:07;;;;;;;15.35;9.35;;;;;;;;;;689980;28;1389;-67
2023/12/04 00:42:27;;;;;;;16.17;9.40;;;;;;;;;;690095;28;864;-67
2023/12/04 00:42:47;;;;;;;15.77;9.27;;;;;;;;;;689451;28;2355;-68
2023/12/04 00:43:07;;;;;;;16.20;9.77;;;;;;;;;;689415;28;1240;-67
2023/12/04 00:43:28;;;;;;;16.33;9.47;;;;;;;;;;689758;28;4261;-67
2023/12/04 00:43:48;;;;;;;15.87;9.27;;;;;;;;;;689947;28;2363;-67
2023/12/04 00:44:08;;;;;;;16.88;9.73;;;;;;;;;;686331;28;1620;-67
2023/12/04 00:44:29;;;;;;;16.63;9.50;;;;;;;;;;687311;28;774;-68
2023/12/04 00:44:49;;;;;;;15.37;8.97;;;;;;;;;;686551;28;1062;-67
2023/12/04 00:45:10;;;;;;;15.98;9.30;;;;;;;;;;687502;28;1094;-67
2023/12/04 00:45:30;;;;;;;15.53;9.23;;;;;;;;;;690133;28;872;-67
2023/12/04 00:45:50;;;;;;;16.30;9.50;;;;;;;;;;688975;28;1926;-67
2023/12/04 00:46:10;;;;;;;15.93;9.57;;;;;;;;;;690553;28;805;-67
2023/12/04 00:46:31;;;;;;;16.63;9.97;;;;;;;;;;689472;28;4273;-67
2023/12/04 00:46:51;;;;;;;16.40;9.05;;;;;;;;;;689651;28;1705;-68
2023/12/04 00:47:11;;;;;;;15.40;9.03;;;;;;;;;;689995;28;912;-68
2023/12/04 00:47:31;;;;;;;15.63;9.57;;;;;;;;;;690267;28;806;-67
2023/12/04 00:47:52;;;;;;;16.05;9.18;;;;;;;;;;688758;28;1715;-66
2023/12/04 00:48:12;;;;;;;16.67;8.70;;;;;;;;;;689964;28;1301;-67
2023/12/04 00:48:32;;;;;;;15.98;9.20;;;;;;;;;;689738;28;904;-67
2023/12/04 00:48:53;;;;;;;16.10;9.20;;;;;;;;;;689162;28;1830;-66
2023/12/04 00:49:13;;;;;;;15.43;8.63;;;;;;;;;;690039;28;801;-66
2023/12/04 00:49:33;;;;;;;15.60;8.83;;;;;;;;;;688969;28;4447;-67
2023/12/04 00:49:53;;;;;;;13.00;7.30;;;;;;;;;;686526;28;1777;-67
2023/12/04 00:50:14;;;;;;;15.03;8.43;;;;;;;;;;687252;28;1464;-68
2023/12/04 00:50:34;;;;;;;15.98;9.07;;;;;;;;;;683494;28;1381;-68
2023/12/04 00:50:54;;;;;;;15.90;9.13;;;;;;;;;;682421;28;1116;-68
2023/12/04 00:51:14;;;;;;;16.27;8.97;;;;;;;;;;683543;28;790;-68
2023/12/04 00:51:38;;;;;;;16.70;9.20;;;;;;;;;;683605;28;870;-68
2023/12/04 00:51:58;;;;;;;17.02;9.68;;;;;;;;;;688057;28;1019;-67
2023/12/04 00:52:19;;;;;;;16.55;9.35;;;;;;;;;;690138;28;956;-69
2023/12/04 00:52:39;;;;;;;15.53;9.07;;;;;;;;;;688100;28;4245;-68
2023/12/04 00:52:59;;;;;;;16.67;9.50;;;;;;;;;;690334;28;868;-68
2023/12/04 00:53:19;;;;;;;16.70;9.40;;;;;;;;;;689335;28;983;-69
2023/12/04 00:53:40;;;;;;;16.80;9.10;;;;;;;;;;689241;28;1992;-67
2023/12/04 00:54:00;;;;;;;16.63;9.77;;;;;;;;;;690186;28;805;-69
2023/12/04 00:54:20;;;;;;;15.10;9.60;;;;;;;;;;690007;28;974;-68
2023/12/04 00:54:40;;;;;;;15.50;9.00;;;;;;;;;;688970;28;1720;-67
2023/12/04 00:55:01;;;;;;;15.67;9.10;;;;;;;;;;690081;28;912;-68
2023/12/04 00:55:21;;;;;;;15.05;9.25;;;;;;;;;;690044;28;978;-67
2023/12/04 00:55:41;;;;;;;16.27;9.47;;;;;;;;;;688325;28;4272;-67
2023/12/04 00:56:01;;;;;;;15.83;9.40;;;;;;;;;;688281;28;1456;-68
2023/12/04 00:56:22;;;;;;;14.43;9.10;;;;;;;;;;688984;28;920;-68
2023/12/04 00:56:42;;;;;;;15.67;9.33;;;;;;;;;;687365;28;1745;-68
2023/12/04 00:57:02;;;;;;;17.30;9.40;;;;;;;;;;686049;28;1319;-68
2023/12/04 00:57:23;;;;;;;15.55;9.23;;;;;;;;;;687271;28;794;-67
2023/12/04 00:57:43;;;;;;;14.30;8.90;;;;;;;;;;686198;28;1573;-69
2023/12/04 00:58:03;;;;;;;14.27;8.73;;;;;;;;;;687296;28;885;-67
2023/12/04 00:58:23;;;;;;;15.20;8.90;;;;;;;;;;687173;28;1278;-68
2023/12/04 00:58:44;;;;;;;16.20;9.23;;;;;;;;;;686316;28;4236;-68
2023/12/04 00:59:06;;;;;;;15.83;9.17;;;;;;;;;;684661;28;1347;-67
2023/12/04 00:59:26;;;;;;;14.98;8.82;;;;;;;;;;684677;28;837;-67
2023/12/04 00:59:47;;;;;;;14.43;9.17;;;;;;;;;;682909;28;1650;-70
2023/12/04 01:00:07;;;;;;;14.60;9.17;;;;;;;;;;680814;28;1091;-67
2023/12/04 01:00:27;;;;;;;14.87;9.43;;;;;;;;;;685264;28;1022;-70
2023/12/04 01:00:48;;;;;;;14.03;8.83;;;;;;;;;;684164;28;1023;-69
2023/12/04 01:01:09;;;;;;;14.75;8.70;;;;;;;;;;680130;29;1267;-70
2023/12/04 01:01:29;;;;;;;13.40;8.20;;;;;;;;;;679468;29;4306;-70
2023/12/04 01:01:49;;;;;;;14.50;7.97;;;;;;;;;;680113;28;1844;-68
2023/12/04 01:02:09;;;;;;;13.93;7.85;;;;;;;;;;684589;28;1015;-66
2023/12/04 01:02:30;;;;;;;14.17;7.37;;;;;;;;;;684437;28;2673;-66
2023/12/04 01:02:51;;;;;;;14.60;7.57;;;;;;;;;;683757;28;2203;-67
2023/12/04 01:03:11;;;;;;;14.90;8.60;;;;;;;;;;687035;28;896;-67
2023/12/04 01:03:32;;;;;;;14.93;8.85;;;;;;;;;;689892;28;1122;-67
2023/12/04 01:03:53;;;;;;;14.13;9.00;;;;;;;;;;689084;28;1437;-67
2023/12/04 01:04:13;;;;;;;14.88;8.80;;;;;;;;;;690029;28;916;-67
2023/12/04 01:04:33;;;;;;;15.63;9.20;;;;;;;;;;689526;28;4401;-67
2023/12/04 01:04:53;;;;;;;15.13;9.00;;;;;;;;;;688855;28;1939;-67
2023/12/04 01:05:14;;;;;;;14.97;8.83;;;;;;;;;;689539;28;1162;-68
2023/12/04 01:05:34;;;;;;;14.60;8.80;;;;;;;;;;690402;28;754;-67
2023/12/04 01:05:54;;;;;;;14.50;8.67;;;;;;;;;;688621;28;1973;-67
2023/12/04 01:06:22;;;;;;;16.20;8.68;;;;;;;;;;691441;28;786;-67
2023/12/04 01:06:42;;;;;;;14.00;8.40;;;;;;;;;;691930;28;1778;-67
2023/12/04 01:07:03;;;;;;;13.67;8.70;;;;;;;;;;693865;28;912;-67
2023/12/04 01:07:23;;;;;;;14.23;9.03;;;;;;;;;;692372;28;959;-68
2023/12/04 01:07:43;;;;;;;15.03;8.50;;;;;;;;;;688867;28;4266;-71
2023/12/04 01:08:03;;;;;;;13.63;7.67;;;;;;;;;;689767;28;940;-70
2023/12/04 01:08:24;;;;;;;15.30;8.80;;;;;;;;;;689759;28;1109;-69
2023/12/04 01:08:44;;;;;;;15.82;8.80;;;;;;;;;;689896;28;1537;-69
2023/12/04 01:09:04;;;;;;;15.43;8.73;;;;;;;;;;690486;28;959;-68
2023/12/04 01:09:25;;;;;;;14.17;8.27;;;;;;;;;;689335;28;1697;-70
2023/12/04 01:09:45;;;;;;;14.65;8.13;;;;;;;;;;686184;28;1886;-68
2023/12/04 01:10:05;;;;;;;14.07;8.73;;;;;;;;;;689743;28;924;-68
2023/12/04 01:10:26;;;;;;;13.35;8.45;;;;;;;;;;689818;28;4292;-68
2023/12/04 01:10:46;;;;;;;15.73;9.03;;;;;;;;;;689055;28;1425;-68
2023/12/04 01:11:06;;;;;;;15.17;9.03;;;;;;;;;;690425;28;1241;-69
2023/12/04 01:11:26;;;;;;;14.30;8.63;;;;;;;;;;690352;28;948;-68
2023/12/04 01:11:47;;;;;;;15.97;8.90;;;;;;;;;;688909;28;2244;-69
2023/12/04 01:12:07;;;;;;;15.73;8.40;;;;;;;;;;689632;28;845;-68
2023/12/04 01:12:27;;;;;;;14.35;8.63;;;;;;;;;;687658;28;1296;-68
2023/12/04 01:12:47;;;;;;;13.73;8.30;;;;;;;;;;686037;28;1514;-69
2023/12/04 01:13:08;;;;;;;17.53;9.50;;;;;;;;;;684891;28;885;-70
2023/12/04 01:13:28;;;;;;;15.32;9.00;;;;;;;;;;684237;28;4466;-69
2023/12/04 01:13:49;;;;;;;14.93;8.97;;;;;;;;;;686005;28;1017;-69
2023/12/04 01:14:09;;;;;;;16.20;8.80;;;;;;;;;;687401;28;1107;-69
2023/12/04 01:14:30;;;;;;;15.17;8.77;;;;;;;;;;690210;28;1265;-69
2023/12/04 01:14:50;;;;;;;14.77;8.82;;;;;;;;;;685207;28;2871;-69
2023/12/04 01:15:10;;;;;;;13.27;8.23;;;;;;;;;;687111;28;1261;-67
2023/12/04 01:15:30;;;;;;;13.43;8.17;;;;;;;;;;688629;28;884;-68
2023/12/04 01:15:51;;;;;;;14.65;8.25;;;;;;;;;;687744;28;1982;-68
2023/12/04 01:16:11;;;;;;;15.27;9.00;;;;;;;;;;689202;28;1069;-68
2023/12/04 01:16:32;;;;;;;16.00;8.95;;;;;;;;;;684363;28;4291;-69
2023/12/04 01:16:52;;;;;;;14.70;8.30;;;;;;;;;;685486;28;2116;-71
2023/12/04 01:17:13;;;;;;;14.40;8.45;;;;;;;;;;686908;28;1180;-68
2023/12/04 01:17:33;;;;;;;15.17;9.00;;;;;;;;;;684795;28;929;-68
2023/12/04 01:17:53;;;;;;;15.13;8.73;;;;;;;;;;683407;28;2273;-69
2023/12/04 01:18:14;;;;;;;15.60;8.93;;;;;;;;;;684547;28;948;-69
2023/12/04 01:18:34;;;;;;;14.30;8.02;;;;;;;;;;686334;28;978;-69
2023/12/04 01:18:54;;;;;;;14.33;8.23;;;;;;;;;;685816;28;1441;-68
2023/12/04 01:19:14;;;;;;;14.97;8.37;;;;;;;;;;686984;28;1149;-69
2023/12/04 01:19:35;;;;;;;15.90;9.13;;;;;;;;;;685011;28;4249;-67
2023/12/04 01:19:55;;;;;;;15.27;8.87;;;;;;;;;;685808;28;1952;-68
2023/12/04 01:20:15;;;;;;;15.70;9.23;;;;;;;;;;685176;28;3788;-69
2023/12/04 01:20:36;;;;;;;14.40;8.98;;;;;;;;;;685341;28;837;-68
2023/12/04 01:20:56;;;;;;;13.68;8.55;;;;;;;;;;685216;28;1192;-67
2023/12/04 01:21:16;;;;;;;14.43;8.53;;;;;;;;;;688652;28;936;-70
2023/12/04 01:21:37;;;;;;;14.47;8.50;;;;;;;;;;690079;28;885;-68
2023/12/04 01:21:57;;;;;;;15.68;8.85;;;;;;;;;;689482;28;2523;-69
2023/12/04 01:22:17;;;;;;;14.90;8.90;;;;;;;;;;689956;28;794;-68
2023/12/04 01:22:38;;;;;;;14.67;9.03;;;;;;;;;;689365;28;4475;-70
2023/12/04 01:22:58;;;;;;;14.18;8.43;;;;;;;;;;689171;28;1557;-69
2023/12/04 01:23:18;;;;;;;15.67;8.87;;;;;;;;;;689865;28;1174;-69
2023/12/04 01:23:38;;;;;;;15.60;8.73;;;;;;;;;;690341;28;793;-67
2023/12/04 01:23:59;;;;;;;14.70;8.35;;;;;;;;;;689371;28;1268;-67
2023/12/04 01:24:19;;;;;;;14.27;8.30;;;;;;;;;;689906;28;1067;-69
2023/12/04 01:24:39;;;;;;;13.93;8.83;;;;;;;;;;689275;28;1196;-71
2023/12/04 01:24:59;;;;;;;13.55;8.57;;;;;;;;;;688850;28;2069;-68
2023/12/04 01:25:20;;;;;;;14.73;8.77;;;;;;;;;;689810;28;790;-69
2023/12/04 01:25:40;;;;;;;14.32;8.80;;;;;;;;;;688291;28;4413;-70
2023/12/04 01:26:01;;;;;;;14.27;8.50;;;;;;;;;;685517;28;1918;-69
2023/12/04 01:26:21;;;;;;;14.00;8.43;;;;;;;;;;684130;28;989;-69
2023/12/04 01:26:42;;;;;;;15.53;8.87;;;;;;;;;;680636;28;1531;-68
2023/12/04 01:27:02;;;;;;;15.20;9.07;;;;;;;;;;681360;28;873;-68
2023/12/04 01:27:22;;;;;;;13.80;8.43;;;;;;;;;;679840;29;865;-69
2023/12/04 01:27:43;;;;;;;14.10;8.50;;;;;;;;;;681401;28;7160;-68
2023/12/04 01:28:03;;;;;;;14.02;8.35;;;;;;;;;;688416;28;1303;-69
2023/12/04 01:28:23;;;;;;;14.13;8.40;;;;;;;;;;687658;28;1251;-71
2023/12/04 01:28:43;;;;;;;12.47;7.60;;;;;;;;;;687430;28;4528;-68
2023/12/04 01:29:03;;;;;;;13.07;7.43;;;;;;;;;;688830;28;932;-68
2023/12/04 01:29:24;;;;;;;13.60;8.27;;;;;;;;;;686997;28;1256;-71
2023/12/04 01:29:44;;;;;;;13.87;7.73;;;;;;;;;;683225;28;1251;-72
2023/12/04 01:30:05;;;;;;;15.32;8.65;;;;;;;;;;682202;28;1127;-70
2023/12/04 01:30:25;;;;;;;14.80;8.85;;;;;;;;;;678818;29;1437;-71
2023/12/04 01:30:46;;;;;;;14.13;8.37;;;;;;;;;;680033;29;1559;-69
2023/12/04 01:31:06;;;;;;;14.50;7.65;;;;;;;;;;679433;29;853;-69
2023/12/04 01:31:26;;;;;;;15.43;8.47;;;;;;;;;;678851;29;4528;-69
2023/12/04 01:31:47;;;;;;;16.20;9.00;;;;;;;;;;680811;28;1545;-69
2023/12/04 01:32:07;;;;;;;14.00;8.65;;;;;;;;;;682239;29;897;-69
2023/12/04 01:32:27;;;;;;;13.57;8.40;;;;;;;;;;684434;28;975;-69
2023/12/04 01:32:47;;;;;;;15.30;8.30;;;;;;;;;;681149;28;1819;-70
2023/12/04 01:33:08;;;;;;;15.73;8.38;;;;;;;;;;680383;29;1597;-70
2023/12/04 01:33:29;;;;;;;14.60;8.80;;;;;;;;;;680473;29;1107;-71
2023/12/04 01:33:50;;;;;;;14.43;8.18;;;;;;;;;;680403;28;1456;-71
2023/12/04 01:34:10;;;;;;;14.07;8.53;;;;;;;;;;685089;28;848;-69
2023/12/04 01:34:30;;;;;;;14.85;8.93;;;;;;;;;;684375;28;4608;-70
2023/12/04 01:34:50;;;;;;;15.23;8.80;;;;;;;;;;686816;28;1805;-71
2023/12/04 01:35:11;;;;;;;14.47;8.37;;;;;;;;;;687197;28;1435;-69
2023/12/04 01:35:31;;;;;;;13.48;7.85;;;;;;;;;;687277;28;1482;-71
2023/12/04 01:35:52;;;;;;;14.23;8.20;;;;;;;;;;685645;28;1918;-69
2023/12/04 01:36:12;;;;;;;15.07;8.30;;;;;;;;;;684837;28;1166;-70
2023/12/04 01:36:32;;;;;;;15.20;8.40;;;;;;;;;;687319;28;1232;-72
2023/12/04 01:36:53;;;;;;;15.35;8.57;;;;;;;;;;683441;28;1941;-71
2023/12/04 01:37:13;;;;;;;14.53;8.50;;;;;;;;;;679820;28;1235;-73
2023/12/04 01:37:33;;;;;;;14.03;8.43;;;;;;;;;;684012;28;4319;-70
2023/12/04 01:37:54;;;;;;;14.05;8.57;;;;;;;;;;683257;28;2054;-69
2023/12/04 01:38:14;;;;;;;14.87;8.60;;;;;;;;;;684669;28;1394;-68
2023/12/04 01:38:34;;;;;;;13.93;8.27;;;;;;;;;;689079;28;1327;-70
2023/12/04 01:38:54;;;;;;;13.60;8.07;;;;;;;;;;688042;28;1434;-72
2023/12/04 01:39:15;;;;;;;13.23;7.67;;;;;;;;;;689564;28;1369;-68
2023/12/04 01:39:35;;;;;;;14.20;8.30;;;;;;;;;;688751;28;877;-69
2023/12/04 01:39:55;;;;;;;14.13;8.43;;;;;;;;;;687915;28;1509;-69
2023/12/04 01:40:15;;;;;;;14.57;8.83;;;;;;;;;;685389;28;822;-69
2023/12/04 01:40:36;;;;;;;14.77;8.47;;;;;;;;;;686419;28;4459;-69
2023/12/04 01:40:56;;;;;;;14.55;8.00;;;;;;;;;;689328;28;1553;-69
2023/12/04 01:41:16;;;;;;;13.63;8.47;;;;;;;;;;687505;28;951;-69
2023/12/04 01:41:37;;;;;;;14.55;8.90;;;;;;;;;;689915;28;1365;-70
2023/12/04 01:41:57;;;;;;;14.63;8.73;;;;;;;;;;689847;28;2479;-70
2023/12/04 01:42:17;;;;;;;14.90;9.00;;;;;;;;;;688845;28;860;-69
2023/12/04 01:42:38;;;;;;;14.83;8.63;;;;;;;;;;690072;28;825;-69
2023/12/04 01:42:58;;;;;;;15.10;8.63;;;;;;;;;;689570;28;2094;-69
2023/12/04 01:43:18;;;;;;;13.90;8.23;;;;;;;;;;689481;28;948;-68
2023/12/04 01:43:38;;;;;;;14.00;8.30;;;;;;;;;;689019;28;4247;-69
2023/12/04 01:43:59;;;;;;;13.07;8.13;;;;;;;;;;689812;28;1453;-70
2023/12/04 01:44:19;;;;;;;15.23;8.70;;;;;;;;;;686561;28;1350;-69
2023/12/04 01:44:39;;;;;;;15.10;9.03;;;;;;;;;;687590;28;837;-68
2023/12/04 01:45:00;;;;;;;14.37;8.20;;;;;;;;;;686393;28;1671;-69
2023/12/04 01:45:20;;;;;;;13.05;7.57;;;;;;;;;;686933;28;822;-69
2023/12/04 01:45:40;;;;;;;14.37;8.20;;;;;;;;;;686870;28;1265;-67
2023/12/04 01:46:01;;;;;;;13.70;8.03;;;;;;;;;;681396;28;1915;-70
2023/12/04 01:46:21;;;;;;;14.52;8.13;;;;;;;;;;681820;29;1368;-71
2023/12/04 01:46:42;;;;;;;14.77;8.30;;;;;;;;;;680321;28;4423;-71
2023/12/04 01:47:03;;;;;;;14.02;7.90;;;;;;;;;;681808;29;910;-70
2023/12/04 01:47:24;;;;;;;15.30;8.27;;;;;;;;;;684131;28;1201;-70
2023/12/04 01:47:45;;;;;;;12.80;8.05;;;;;;;;;;683466;28;1721;-70
2023/12/04 01:48:06;;;;;;;13.38;8.20;;;;;;;;;;683143;28;908;-70
2023/12/04 01:48:26;;;;;;;15.48;8.57;;;;;;;;;;684333;28;1052;-68
2023/12/04 01:48:47;;;;;;;14.20;7.80;;;;;;;;;;686351;28;1537;-70
2023/12/04 01:49:07;;;;;;;14.07;7.80;;;;;;;;;;687857;28;960;-69
2023/12/04 01:49:28;;;;;;;14.87;8.20;;;;;;;;;;686522;28;4344;-71
2023/12/04 01:49:48;;;;;;;14.05;8.27;;;;;;;;;;686387;28;1512;-71
2023/12/04 01:50:08;;;;;;;13.67;7.73;;;;;;;;;;687495;28;1350;-70
2023/12/04 01:50:29;;;;;;;13.20;8.32;;;;;;;;;;681775;28;1214;-70
2023/12/04 01:50:49;;;;;;;13.10;8.50;;;;;;;;;;681124;28;1997;-68
2023/12/04 01:51:10;;;;;;;13.70;8.27;;;;;;;;;;682028;28;917;-71
2023/12/04 01:51:30;;;;;;;13.45;8.30;;;;;;;;;;684570;28;901;-70
2023/12/04 01:51:50;;;;;;;13.40;7.83;;;;;;;;;;686007;28;1993;-70
2023/12/04 01:52:11;;;;;;;12.33;6.87;;;;;;;;;;687326;28;987;-68
2023/12/04 01:52:31;;;;;;;10.60;6.43;;;;;;;;;;685963;28;4398;-70
2023/12/04 01:52:52;;;;;;;13.10;7.97;;;;;;;;;;686540;28;1013;-69
2023/12/04 01:53:12;;;;;;;14.57;8.50;;;;;;;;;;685024;28;830;-69
2023/12/04 01:53:32;;;;;;;14.83;8.67;;;;;;;;;;684890;28;1192;-68
2023/12/04 01:53:53;;;;;;;13.83;8.20;;;;;;;;;;685739;28;1737;-68
2023/12/04 01:54:14;;;;;;;12.68;8.30;;;;;;;;;;684724;28;945;-68
2023/12/04 01:54:35;;;;;;;13.88;8.60;;;;;;;;;;684584;28;806;-69
2023/12/04 01:54:55;;;;;;;13.68;8.40;;;;;;;;;;683674;28;1824;-68
2023/12/04 01:55:15;;;;;;;13.53;8.20;;;;;;;;;;687198;28;894;-69
2023/12/04 01:55:37;;;;;;;14.13;8.35;;;;;;;;;;689468;28;4254;-70
2023/12/04 01:55:57;;;;;;;14.30;9.05;;;;;;;;;;689386;28;1716;-69
2023/12/04 01:56:17;;;;;;;14.97;8.90;;;;;;;;;;689958;28;862;-69
2023/12/04 01:56:37;;;;;;;14.50;8.70;;;;;;;;;;689962;28;825;-68
2023/12/04 01:56:58;;;;;;;13.37;8.47;;;;;;;;;;688841;28;1177;-69
2023/12/04 01:57:18;;;;;;;13.93;7.97;;;;;;;;;;690073;28;944;-69
2023/12/04 01:57:39;;;;;;;14.68;8.18;;;;;;;;;;689482;28;864;-70
2023/12/04 01:58:00;;;;;;;13.30;8.03;;;;;;;;;;687890;28;974;-68
2023/12/04 01:58:20;;;;;;;12.90;7.90;;;;;;;;;;689906;28;945;-69
2023/12/04 01:58:41;;;;;;;14.07;7.80;;;;;;;;;;689314;28;4213;-70
2023/12/04 01:59:02;;;;;;;13.07;7.55;;;;;;;;;;689394;28;1453;-67
2023/12/04 01:59:22;;;;;;;13.05;8.15;;;;;;;;;;686687;28;891;-69
2023/12/04 01:59:42;;;;;;;13.80;8.17;;;;;;;;;;685808;28;2648;-70
2023/12/04 02:00:05;;;;;;;13.80;8.18;;;;;;;;;;683785;28;798;-68
2023/12/04 02:00:32;;;;;;;15.18;8.43;;;;;;;;;;681388;29;672;-70
2023/12/04 02:00:52;;;;;;;14.03;8.40;;;;;;;;;;677305;29;2099;-69
2023/12/04 02:01:12;;;;;;;13.93;8.70;;;;;;;;;;678442;29;1279;-70
2023/12/04 02:01:34;;;;;;;14.25;8.13;;;;;;;;;;679994;28;4340;-68
2023/12/04 02:01:55;;;;;;;13.75;8.00;;;;;;;;;;681556;28;1479;-70
2023/12/04 02:02:16;;;;;;;13.95;8.30;;;;;;;;;;684970;28;940;-70
2023/12/04 02:02:37;;;;;;;12.60;8.20;;;;;;;;;;684563;28;1294;-70
2023/12/04 02:02:57;;;;;;;13.00;8.32;;;;;;;;;;684156;28;1689;-70
2023/12/04 02:03:18;;;;;;;12.40;7.90;;;;;;;;;;686248;28;960;-70
2023/12/04 02:03:40;;;;;;;15.02;8.75;;;;;;;;;;684471;28;1151;-70
2023/12/04 02:04:01;;;;;;;13.68;8.02;;;;;;;;;;688992;28;1586;-70
2023/12/04 02:04:22;;;;;;;12.43;7.40;;;;;;;;;;689437;28;841;-70
2023/12/04 02:04:42;;;;;;;14.30;8.30;;;;;;;;;;689639;28;4234;-70
2023/12/04 02:05:03;;;;;;;14.57;7.77;;;;;;;;;;691992;28;932;-70